Mc Lean, Virginia
Current Conditions -  °F | °C
As of 5:52 AM on Thursday 23 Oct 2014 (Local Time) from KDCA Reporting Station
Overcast Overcast  
Wind Chill: 55°   Ceiling: 3500
Heat Index: 55°   Visibility: 10mi
Dew Point: 41°   Wind: 17mph
Humidity: 59%   Direction: 320°NW
Pressure: 29.89"   Gusts: 25mph
Location:  38.9398°N, 77.1677°W
Report Text: KDCA 230952Z 32015G22KT 10SM BKN035 OVC044 13/05 A2989 RMK AO2 SLP121 T01280050
Loading
Personal Weather Stations






























Interactive Weather Map
Tropical Storm Tracking
New forecast layout! Learn more

10-Day Weather Forecast

Advertisements
Track Severe Weather on mobile